Time;durP1;ratioP1;P1;durP2;ratioP2;P2;SDS_P1;SDS_P2;PMS_P1;PMS_P2;Temp;Humidity;BMP_temperature;BMP_pressure;BME280_temperature;BME280_humidity;BME280_pressure;Samples;Min_cycle;Max_cycle;Signal;HPM_P1;HPM_P2
2023/12/05 00:00:00;;;;;;;5.47;2.78;;;;;;;;;;4938928;29;20051;-59
2023/12/05 00:02:26;;;;;;;5.88;3.45;;;;;;;;;;4938645;29;20608;-59
2023/12/05 00:04:52;;;;;;;5.43;2.78;;;;;;;;;;4938907;29;20043;-59
2023/12/05 00:07:19;;;;;;;4.47;2.38;;;;;;;;;;4939226;29;20048;-59
2023/12/05 00:09:45;;;;;;;5.53;2.63;;;;;;;;;;4942297;29;20043;-59
2023/12/05 00:12:11;;;;;;;4.43;2.33;;;;;;;;;;4937375;29;20038;-58
2023/12/05 00:14:37;;;;;;;5.60;2.70;;;;;;;;;;4943762;29;20062;-58
2023/12/05 00:17:04;;;;;;;4.38;2.70;;;;;;;;;;4928535;29;20074;-59
2023/12/05 00:19:30;;;;;;;4.07;2.65;;;;;;;;;;4938974;29;20051;-59
2023/12/05 00:21:56;;;;;;;4.68;3.35;;;;;;;;;;4945991;29;20048;-59
2023/12/05 00:24:22;;;;;;;5.75;2.92;;;;;;;;;;4939633;29;20039;-59
2023/12/05 00:26:48;;;;;;;4.28;2.58;;;;;;;;;;4937636;29;20047;-58
2023/12/05 00:29:14;;;;;;;3.70;2.20;;;;;;;;;;4939318;29;20042;-59
2023/12/05 00:31:40;;;;;;;5.75;2.67;;;;;;;;;;4938208;29;20058;-59
2023/12/05 00:34:06;;;;;;;4.97;3.03;;;;;;;;;;4931859;29;20416;-59
2023/12/05 00:36:32;;;;;;;5.55;3.38;;;;;;;;;;4937535;29;20048;-58
2023/12/05 00:38:59;;;;;;;5.70;3.08;;;;;;;;;;4938345;29;20034;-58
2023/12/05 00:41:25;;;;;;;4.10;2.67;;;;;;;;;;4938867;29;20043;-58
2023/12/05 00:43:52;;;;;;;4.72;2.92;;;;;;;;;;4935831;29;20412;-59
2023/12/05 00:46:18;;;;;;;4.93;3.20;;;;;;;;;;4942234;29;20055;-58
2023/12/05 00:48:44;;;;;;;4.97;3.00;;;;;;;;;;4938379;28;20043;-57
2023/12/05 00:51:10;;;;;;;5.40;2.72;;;;;;;;;;4936111;29;20055;-59
2023/12/05 00:53:36;;;;;;;5.05;2.80;;;;;;;;;;4939747;29;20032;-58
2023/12/05 00:56:02;;;;;;;5.38;2.92;;;;;;;;;;4935730;29;20039;-57
2023/12/05 00:58:28;;;;;;;3.70;2.67;;;;;;;;;;4938227;28;20048;-60
2023/12/05 01:00:54;;;;;;;4.80;2.58;;;;;;;;;;4938386;29;20066;-59
2023/12/05 01:03:21;;;;;;;4.20;2.40;;;;;;;;;;4935763;29;20052;-59
2023/12/05 01:05:47;;;;;;;4.45;2.53;;;;;;;;;;4937592;29;20055;-60
2023/12/05 01:08:13;;;;;;;4.10;2.70;;;;;;;;;;4939189;29;20046;-59
2023/12/05 01:10:39;;;;;;;3.90;2.55;;;;;;;;;;4936571;29;20039;-57
2023/12/05 01:13:06;;;;;;;4.30;2.78;;;;;;;;;;4934983;29;20063;-60
2023/12/05 01:15:32;;;;;;;4.18;2.63;;;;;;;;;;4942501;29;20043;-59
2023/12/05 01:17:58;;;;;;;4.75;3.10;;;;;;;;;;4937417;29;20431;-60
2023/12/05 01:20:24;;;;;;;4.18;2.55;;;;;;;;;;4938023;28;20051;-59
2023/12/05 01:22:50;;;;;;;3.70;2.60;;;;;;;;;;4934262;29;20657;-59
2023/12/05 01:25:17;;;;;;;5.70;2.85;;;;;;;;;;4933098;29;20043;-60
2023/12/05 01:27:43;;;;;;;6.40;2.92;;;;;;;;;;4932981;29;20039;-59
2023/12/05 01:30:09;;;;;;;4.57;2.75;;;;;;;;;;4935335;29;20040;-59
2023/12/05 01:32:35;;;;;;;3.28;2.35;;;;;;;;;;4935232;29;20048;-59
2023/12/05 01:35:02;;;;;;;4.20;2.35;;;;;;;;;;4935881;29;20055;-60
2023/12/05 01:37:28;;;;;;;4.30;2.53;;;;;;;;;;4934477;29;20043;-60
2023/12/05 01:39:54;;;;;;;3.10;2.40;;;;;;;;;;4930787;29;20527;-59
2023/12/05 01:42:21;;;;;;;3.50;2.35;;;;;;;;;;4934842;29;20056;-60
2023/12/05 01:44:48;;;;;;;4.18;2.70;;;;;;;;;;4936628;29;20412;-59
2023/12/05 01:47:16;;;;;;;4.68;2.40;;;;;;;;;;4936100;29;20042;-60
2023/12/05 01:49:44;;;;;;;3.30;2.05;;;;;;;;;;4933369;29;20036;-59
2023/12/05 01:52:10;;;;;;;3.78;2.40;;;;;;;;;;4935088;29;20032;-58
2023/12/05 01:54:37;;;;;;;3.65;2.50;;;;;;;;;;4937088;29;20059;-59
2023/12/05 01:57:05;;;;;;;3.42;2.50;;;;;;;;;;4928498;29;20047;-59
2023/12/05 01:59:32;;;;;;;3.78;2.58;;;;;;;;;;4934776;29;20035;-58
2023/12/05 02:01:58;;;;;;;2.95;2.17;;;;;;;;;;4936755;29;20459;-59
2023/12/05 02:04:24;;;;;;;4.68;3.10;;;;;;;;;;4937306;29;20039;-59
2023/12/05 02:06:51;;;;;;;4.18;2.83;;;;;;;;;;4935481;29;20518;-59
2023/12/05 02:09:19;;;;;;;4.40;2.90;;;;;;;;;;4934697;29;20051;-59
2023/12/05 02:11:46;;;;;;;5.40;3.38;;;;;;;;;;4932642;29;20056;-58
2023/12/05 02:14:12;;;;;;;4.07;2.38;;;;;;;;;;4927843;29;20047;-58
2023/12/05 02:16:48;;;;;;;5.70;3.40;;;;;;;;;;4933806;29;20401;-58
2023/12/05 02:19:14;;;;;;;4.95;3.00;;;;;;;;;;4943290;28;20051;-59
2023/12/05 02:21:43;;;;;;;4.00;2.50;;;;;;;;;;4935695;29;20083;-59
2023/12/05 02:24:09;;;;;;;5.05;3.20;;;;;;;;;;4934758;29;20065;-59
2023/12/05 02:26:45;;;;;;;4.95;2.75;;;;;;;;;;4932846;29;20046;-58
2023/12/05 02:29:12;;;;;;;5.30;3.00;;;;;;;;;;4921617;29;20047;-58
2023/12/05 02:31:38;;;;;;;4.72;2.92;;;;;;;;;;4931462;29;20056;-60
2023/12/05 02:34:04;;;;;;;4.47;2.70;;;;;;;;;;4930560;29;20048;-59
2023/12/05 02:36:44;;;;;;;6.72;3.00;;;;;;;;;;4934333;29;20039;-59
2023/12/05 02:39:17;;;;;;;4.95;2.97;;;;;;;;;;4933478;29;20399;-59
2023/12/05 02:41:48;;;;;;;7.20;3.35;;;;;;;;;;4926526;29;20540;-58
2023/12/05 02:44:16;;;;;;;4.45;3.67;;;;;;;;;;4935266;29;20059;-59
2023/12/05 02:46:43;;;;;;;7.15;4.05;;;;;;;;;;4930699;28;20051;-61
2023/12/05 02:49:11;;;;;;;7.05;4.15;;;;;;;;;;4933540;29;20039;-60
2023/12/05 02:51:37;;;;;;;5.25;3.35;;;;;;;;;;4935905;29;20056;-59
2023/12/05 02:54:06;;;;;;;7.22;3.53;;;;;;;;;;4933618;29;20038;-59
2023/12/05 02:56:35;;;;;;;6.32;3.65;;;;;;;;;;4934567;29;20067;-59
2023/12/05 02:59:01;;;;;;;7.63;4.43;;;;;;;;;;4933246;29;20048;-58
2023/12/05 03:01:27;;;;;;;9.05;4.55;;;;;;;;;;4930087;29;20039;-59
2023/12/05 03:03:54;;;;;;;8.30;4.55;;;;;;;;;;4936975;29;20051;-58
2023/12/05 03:06:20;;;;;;;7.32;3.95;;;;;;;;;;4930866;29;20051;-63
2023/12/05 03:08:46;;;;;;;7.22;4.05;;;;;;;;;;4931845;29;20629;-60
2023/12/05 03:11:12;;;;;;;7.38;3.63;;;;;;;;;;4928610;29;20039;-60
2023/12/05 03:13:42;;;;;;;7.22;4.25;;;;;;;;;;4932647;29;20054;-59
2023/12/05 03:16:09;;;;;;;6.25;3.78;;;;;;;;;;4939255;29;20031;-60
2023/12/05 03:18:35;;;;;;;5.72;3.45;;;;;;;;;;4934613;29;20058;-59
2023/12/05 03:21:01;;;;;;;5.95;3.55;;;;;;;;;;4935450;29;20051;-58
2023/12/05 03:23:27;;;;;;;4.43;2.92;;;;;;;;;;4930962;29;20040;-59
2023/12/05 03:25:53;;;;;;;5.38;3.03;;;;;;;;;;4932948;29;20032;-59
2023/12/05 03:28:19;;;;;;;6.25;3.58;;;;;;;;;;4933447;29;20047;-60
2023/12/05 03:30:45;;;;;;;4.75;3.10;;;;;;;;;;4933971;29;20055;-60
2023/12/05 03:33:11;;;;;;;5.50;2.97;;;;;;;;;;4932994;29;20046;-60
2023/12/05 03:35:37;;;;;;;7.85;2.95;;;;;;;;;;4925872;29;20036;-60
2023/12/05 03:38:03;;;;;;;6.60;2.63;;;;;;;;;;4932660;29;20024;-59
2023/12/05 03:40:30;;;;;;;4.85;2.95;;;;;;;;;;4932009;29;20043;-60
2023/12/05 03:42:56;;;;;;;5.20;2.88;;;;;;;;;;4934919;29;20514;-59
2023/12/05 03:45:22;;;;;;;4.90;2.65;;;;;;;;;;4936788;29;20024;-60
2023/12/05 03:47:48;;;;;;;4.03;2.45;;;;;;;;;;4931568;29;20398;-60
2023/12/05 03:50:14;;;;;;;4.00;2.45;;;;;;;;;;4930613;29;20099;-60
2023/12/05 03:52:40;;;;;;;3.25;2.10;;;;;;;;;;4935426;29;20055;-60
2023/12/05 03:55:06;;;;;;;4.60;2.70;;;;;;;;;;4928416;29;20054;-61
2023/12/05 03:57:32;;;;;;;5.35;2.33;;;;;;;;;;4931446;29;20067;-60
2023/12/05 03:59:58;;;;;;;5.00;2.60;;;;;;;;;;4936059;29;20039;-60
2023/12/05 04:02:24;;;;;;;2.97;1.92;;;;;;;;;;4932270;29;20063;-59
2023/12/05 04:04:50;;;;;;;3.30;1.75;;;;;;;;;;4933565;29;20036;-59
2023/12/05 04:07:16;;;;;;;2.83;1.60;;;;;;;;;;4933456;29;20032;-59
2023/12/05 04:09:45;;;;;;;4.82;1.70;;;;;;;;;;4932881;29;20063;-63
2023/12/05 04:12:11;;;;;;;2.78;1.70;;;;;;;;;;4931841;29;20043;-59
2023/12/05 04:14:38;;;;;;;3.63;1.98;;;;;;;;;;4932451;29;20044;-59
2023/12/05 04:17:05;;;;;;;3.90;1.75;;;;;;;;;;4931778;29;20047;-60
2023/12/05 04:19:31;;;;;;;5.13;2.17;;;;;;;;;;4934175;29;20047;-59
2023/12/05 04:21:57;;;;;;;3.38;1.85;;;;;;;;;;4932071;29;20062;-60
2023/12/05 04:24:23;;;;;;;5.47;2.10;;;;;;;;;;4933481;29;20063;-60
2023/12/05 04:26:49;;;;;;;2.45;1.73;;;;;;;;;;4928708;29;20032;-60
2023/12/05 04:29:15;;;;;;;3.33;1.67;;;;;;;;;;4932223;29;20550;-60
2023/12/05 04:31:41;;;;;;;3.85;2.15;;;;;;;;;;4934925;29;20047;-59
2023/12/05 04:34:07;;;;;;;3.10;2.10;;;;;;;;;;4932465;29;20043;-59
2023/12/05 04:36:33;;;;;;;3.72;2.13;;;;;;;;;;4934653;29;20097;-60
2023/12/05 04:38:59;;;;;;;3.35;2.17;;;;;;;;;;4934863;29;20035;-59
2023/12/05 04:41:25;;;;;;;4.28;2.33;;;;;;;;;;4935078;29;20055;-60
2023/12/05 04:43:52;;;;;;;5.72;2.90;;;;;;;;;;4936393;29;20056;-60
2023/12/05 04:46:18;;;;;;;3.80;2.30;;;;;;;;;;4935378;29;20479;-59
2023/12/05 04:48:44;;;;;;;4.00;2.35;;;;;;;;;;4934810;29;20047;-59
2023/12/05 04:51:11;;;;;;;3.90;2.50;;;;;;;;;;4935808;29;20060;-59
2023/12/05 04:53:37;;;;;;;4.15;2.28;;;;;;;;;;4935678;29;20046;-59
2023/12/05 04:56:03;;;;;;;3.38;1.90;;;;;;;;;;4938234;29;20048;-59
2023/12/05 04:58:29;;;;;;;3.25;2.05;;;;;;;;;;4934961;29;20443;-60
2023/12/05 05:00:56;;;;;;;4.28;2.30;;;;;;;;;;4935789;29;20789;-59
2023/12/05 05:03:22;;;;;;;5.38;2.60;;;;;;;;;;4933987;29;20060;-59
2023/12/05 05:05:48;;;;;;;4.43;2.60;;;;;;;;;;4936674;29;20039;-59
2023/12/05 05:08:14;;;;;;;6.70;2.80;;;;;;;;;;4934443;29;20048;-61
2023/12/05 05:10:40;;;;;;;7.28;2.63;;;;;;;;;;4934847;29;20052;-59
2023/12/05 05:13:06;;;;;;;5.25;2.42;;;;;;;;;;4934265;29;20459;-60
2023/12/05 05:15:32;;;;;;;5.95;3.40;;;;;;;;;;4935634;29;20040;-60
2023/12/05 05:17:58;;;;;;;5.53;3.03;;;;;;;;;;4929371;29;20040;-59
2023/12/05 05:20:24;;;;;;;5.40;3.33;;;;;;;;;;4935482;29;20055;-60
2023/12/05 05:22:51;;;;;;;4.90;3.15;;;;;;;;;;4935786;29;20036;-59
2023/12/05 05:25:18;;;;;;;6.68;3.63;;;;;;;;;;4935769;29;20492;-60
2023/12/05 05:27:44;;;;;;;8.88;3.35;;;;;;;;;;4934154;29;20043;-59
2023/12/05 05:30:11;;;;;;;5.55;3.05;;;;;;;;;;4935530;29;20032;-60
2023/12/05 05:32:37;;;;;;;5.28;3.05;;;;;;;;;;4934237;29;20071;-59
2023/12/05 05:35:04;;;;;;;4.85;2.75;;;;;;;;;;4928444;29;20051;-59
2023/12/05 05:37:30;;;;;;;4.70;2.40;;;;;;;;;;4929035;29;20503;-60
2023/12/05 05:39:56;;;;;;;7.93;2.58;;;;;;;;;;4926177;29;20051;-60
2023/12/05 05:42:23;;;;;;;3.35;2.30;;;;;;;;;;4923060;29;20411;-60
2023/12/05 05:44:49;;;;;;;5.70;2.78;;;;;;;;;;4926669;29;20071;-60
2023/12/05 05:47:15;;;;;;;5.05;2.30;;;;;;;;;;4933750;29;20408;-59
2023/12/05 05:49:44;;;;;;;4.47;2.10;;;;;;;;;;4936886;29;20518;-60
2023/12/05 05:52:10;;;;;;;3.70;2.40;;;;;;;;;;4934618;29;20051;-59
2023/12/05 05:54:36;;;;;;;3.85;1.90;;;;;;;;;;4934477;29;20051;-60
2023/12/05 05:57:02;;;;;;;3.40;2.45;;;;;;;;;;4933520;29;20055;-60
2023/12/05 05:59:28;;;;;;;4.38;2.30;;;;;;;;;;4934865;29;20188;-59
2023/12/05 06:01:54;;;;;;;5.68;2.33;;;;;;;;;;4926835;29;20048;-59
2023/12/05 06:04:21;;;;;;;4.97;1.85;;;;;;;;;;4935185;29;20051;-59
2023/12/05 06:06:47;;;;;;;3.45;2.03;;;;;;;;;;4940249;29;20046;-59
2023/12/05 06:09:14;;;;;;;2.63;1.83;;;;;;;;;;4934482;29;20043;-58
2023/12/05 06:11:40;;;;;;;5.93;2.25;;;;;;;;;;4934133;29;20067;-59
2023/12/05 06:14:06;;;;;;;6.13;1.90;;;;;;;;;;4936856;29;20062;-60
2023/12/05 06:16:32;;;;;;;3.58;2.25;;;;;;;;;;4933365;29;20031;-59
2023/12/05 06:18:58;;;;;;;3.72;2.20;;;;;;;;;;4931910;29;20125;-58
2023/12/05 06:21:24;;;;;;;2.70;1.40;;;;;;;;;;4933175;29;20051;-59
2023/12/05 06:23:50;;;;;;;4.43;2.15;;;;;;;;;;4934490;29;20047;-58
2023/12/05 06:26:16;;;;;;;3.55;2.28;;;;;;;;;;4933675;29;20044;-59
2023/12/05 06:28:42;;;;;;;3.45;1.70;;;;;;;;;;4932722;29;20055;-59
2023/12/05 06:31:08;;;;;;;2.85;1.90;;;;;;;;;;4934366;29;20043;-60
2023/12/05 06:33:34;;;;;;;5.10;2.05;;;;;;;;;;4934197;29;20032;-59
2023/12/05 06:36:01;;;;;;;7.68;2.83;;;;;;;;;;4933093;29;20044;-59
2023/12/05 06:38:27;;;;;;;4.15;2.55;;;;;;;;;;4930170;29;20051;-60
2023/12/05 06:40:53;;;;;;;6.28;2.92;;;;;;;;;;4928404;29;20040;-58
2023/12/05 06:43:19;;;;;;;5.22;2.70;;;;;;;;;;4923078;29;20052;-58
2023/12/05 06:45:45;;;;;;;4.72;2.17;;;;;;;;;;4937370;29;20050;-59
2023/12/05 06:48:12;;;;;;;5.00;2.80;;;;;;;;;;4930509;29;20419;-58
2023/12/05 06:50:38;;;;;;;7.22;3.10;;;;;;;;;;4932263;29;20051;-58
2023/12/05 06:53:04;;;;;;;5.90;3.40;;;;;;;;;;4930748;29;20051;-58
2023/12/05 06:55:30;;;;;;;8.68;2.90;;;;;;;;;;4933074;29;20055;-59
2023/12/05 06:57:56;;;;;;;5.15;2.97;;;;;;;;;;4930070;29;20051;-59
2023/12/05 07:00:24;;;;;;;5.47;2.63;;;;;;;;;;4923875;29;20051;-59
2023/12/05 07:02:50;;;;;;;3.95;2.65;;;;;;;;;;4922956;29;20598;-59
2023/12/05 07:05:16;;;;;;;6.10;2.72;;;;;;;;;;4926664;29;20060;-63
2023/12/05 07:07:42;;;;;;;7.75;3.80;;;;;;;;;;4931980;29;20047;-60
2023/12/05 07:10:08;;;;;;;7.82;4.43;;;;;;;;;;4932375;29;20032;-60
2023/12/05 07:12:34;;;;;;;7.93;4.15;;;;;;;;;;4931941;29;20063;-60
2023/12/05 07:15:00;;;;;;;8.40;3.92;;;;;;;;;;4928352;29;20496;-61
2023/12/05 07:17:26;;;;;;;6.82;3.25;;;;;;;;;;4931680;29;20384;-59
2023/12/05 07:19:52;;;;;;;7.55;3.90;;;;;;;;;;4932643;29;20055;-60
2023/12/05 07:22:18;;;;;;;5.38;3.45;;;;;;;;;;4932870;29;20052;-61
2023/12/05 07:24:45;;;;;;;5.55;2.70;;;;;;;;;;4931567;29;20502;-60
2023/12/05 07:27:11;;;;;;;4.43;2.92;;;;;;;;;;4931487;29;20028;-60
2023/12/05 07:29:37;;;;;;;4.78;2.78;;;;;;;;;;4932837;29;20090;-59
2023/12/05 07:32:03;;;;;;;7.15;2.78;;;;;;;;;;4932707;29;20055;-61
2023/12/05 07:34:29;;;;;;;5.70;2.78;;;;;;;;;;4932269;29;20058;-61
2023/12/05 07:36:55;;;;;;;8.45;3.33;;;;;;;;;;4931639;29;20047;-60
2023/12/05 07:39:21;;;;;;;4.50;2.70;;;;;;;;;;4931034;29;20055;-59
2023/12/05 07:41:49;;;;;;;5.22;2.72;;;;;;;;;;4931593;29;20046;-58
2023/12/05 07:44:15;;;;;;;9.07;2.97;;;;;;;;;;4929515;29;20409;-59
2023/12/05 07:46:42;;;;;;;4.45;2.75;;;;;;;;;;4931538;29;20411;-59
2023/12/05 07:49:08;;;;;;;3.90;2.35;;;;;;;;;;4931914;29;20055;-59
2023/12/05 07:51:34;;;;;;;5.65;2.70;;;;;;;;;;4929342;29;20055;-59
2023/12/05 07:54:00;;;;;;;3.83;1.98;;;;;;;;;;4930709;29;20475;-59
2023/12/05 07:56:26;;;;;;;6.32;2.20;;;;;;;;;;4930359;29;20043;-63
2023/12/05 07:58:52;;;;;;;3.58;2.20;;;;;;;;;;4930749;29;20047;-61
2023/12/05 08:01:19;;;;;;;4.13;2.20;;;;;;;;;;4927848;29;20055;-61
2023/12/05 08:03:45;;;;;;;5.88;2.10;;;;;;;;;;4914297;29;20043;-61
2023/12/05 08:06:11;;;;;;;6.38;2.47;;;;;;;;;;4929348;29;20519;-61
2023/12/05 08:08:38;;;;;;;8.32;2.35;;;;;;;;;;4933361;29;20039;-62
2023/12/05 08:11:05;;;;;;;4.47;1.90;;;;;;;;;;4935282;29;20031;-60
2023/12/05 08:13:32;;;;;;;5.88;2.05;;;;;;;;;;4935914;29;20055;-60
2023/12/05 08:15:58;;;;;;;3.78;2.70;;;;;;;;;;4928661;29;20048;-59
2023/12/05 08:18:24;;;;;;;8.60;2.88;;;;;;;;;;4934388;29;20044;-58
2023/12/05 08:20:50;;;;;;;4.78;2.53;;;;;;;;;;4935361;29;20059;-59
2023/12/05 08:23:19;;;;;;;7.15;3.30;;;;;;;;;;4934261;29;20431;-60
2023/12/05 08:25:45;;;;;;;14.65;3.58;;;;;;;;;;4930183;29;20052;-59
2023/12/05 08:28:11;;;;;;;4.78;2.55;;;;;;;;;;4934422;29;20047;-59
2023/12/05 08:30:38;;;;;;;3.92;2.63;;;;;;;;;;4932178;29;20059;-61
2023/12/05 08:33:05;;;;;;;8.45;3.20;;;;;;;;;;4923918;29;20039;-60
2023/12/05 08:35:31;;;;;;;7.20;3.33;;;;;;;;;;4929960;29;20043;-60
2023/12/05 08:37:57;;;;;;;4.28;2.40;;;;;;;;;;4933864;29;20050;-58
2023/12/05 08:40:23;;;;;;;4.97;2.90;;;;;;;;;;4934178;29;20062;-59
2023/12/05 08:42:49;;;;;;;5.03;2.95;;;;;;;;;;4934475;29;20039;-59
2023/12/05 08:45:15;;;;;;;3.58;2.17;;;;;;;;;;4935300;29;20051;-61
2023/12/05 08:47:41;;;;;;;3.45;2.30;;;;;;;;;;4930808;29;20035;-60
2023/12/05 08:50:08;;;;;;;5.93;2.58;;;;;;;;;;4932965;29;20055;-59
2023/12/05 08:52:34;;;;;;;5.85;2.70;;;;;;;;;;4931328;29;20654;-59
2023/12/05 08:55:00;;;;;;;7.47;2.65;;;;;;;;;;4932326;29;20428;-61
2023/12/05 08:57:27;;;;;;;4.72;2.45;;;;;;;;;;4931423;29;20039;-58
2023/12/05 08:59:53;;;;;;;4.53;2.30;;;;;;;;;;4933424;29;20036;-60
2023/12/05 09:02:20;;;;;;;4.85;2.47;;;;;;;;;;4932060;29;20058;-63
2023/12/05 09:04:46;;;;;;;3.97;1.90;;;;;;;;;;4933804;29;20042;-61
2023/12/05 09:07:12;;;;;;;4.75;2.63;;;;;;;;;;4930211;29;20036;-62
2023/12/05 09:09:41;;;;;;;7.88;3.05;;;;;;;;;;4934255;29;20054;-61
2023/12/05 09:12:08;;;;;;;6.40;2.88;;;;;;;;;;4934217;29;20074;-63
2023/12/05 09:14:35;;;;;;;4.45;2.60;;;;;;;;;;4934549;29;20499;-62
2023/12/05 09:17:04;;;;;;;6.07;3.00;;;;;;;;;;4931914;29;20043;-62
2023/12/05 09:19:30;;;;;;;4.20;2.80;;;;;;;;;;4928942;29;20055;-60
2023/12/05 09:21:56;;;;;;;6.00;3.00;;;;;;;;;;4933133;29;20047;-63
2023/12/05 09:24:22;;;;;;;5.15;2.63;;;;;;;;;;4932868;29;20051;-62
2023/12/05 09:26:48;;;;;;;5.47;2.80;;;;;;;;;;4932068;29;20035;-61
2023/12/05 09:29:15;;;;;;;6.47;2.90;;;;;;;;;;4931656;29;20510;-61
2023/12/05 09:31:41;;;;;;;6.82;2.95;;;;;;;;;;4929160;29;20423;-61
2023/12/05 09:34:07;;;;;;;4.68;2.70;;;;;;;;;;4929281;29;20059;-61
2023/12/05 09:36:33;;;;;;;7.32;2.63;;;;;;;;;;4932618;29;20050;-59
2023/12/05 09:38:59;;;;;;;8.10;2.97;;;;;;;;;;4927556;29;20051;-61
2023/12/05 09:41:27;;;;;;;8.43;2.97;;;;;;;;;;4927425;29;20063;-63
2023/12/05 09:43:53;;;;;;;8.23;2.88;;;;;;;;;;4933637;29;20046;-60
2023/12/05 09:46:20;;;;;;;7.18;3.17;;;;;;;;;;4933538;29;20399;-59
2023/12/05 09:48:48;;;;;;;6.57;2.90;;;;;;;;;;4929127;29;20036;-63
2023/12/05 09:51:16;;;;;;;4.70;2.45;;;;;;;;;;4942814;29;20059;-59
2023/12/05 09:53:44;;;;;;;3.35;2.15;;;;;;;;;;4931895;29;20415;-59
2023/12/05 09:56:12;;;;;;;5.07;2.28;;;;;;;;;;4932189;29;20496;-59
2023/12/05 09:58:43;;;;;;;3.95;2.33;;;;;;;;;;4929417;29;20051;-61
2023/12/05 10:01:13;;;;;;;4.18;1.83;;;;;;;;;;4931364;29;20047;-58
2023/12/05 10:03:41;;;;;;;3.45;2.20;;;;;;;;;;4933644;29;20397;-58
2023/12/05 10:06:09;;;;;;;3.85;2.13;;;;;;;;;;4932365;29;20543;-59
2023/12/05 10:08:37;;;;;;;6.22;2.70;;;;;;;;;;4927160;29;20165;-60
2023/12/05 10:11:04;;;;;;;4.55;2.85;;;;;;;;;;4933484;29;20345;-59
2023/12/05 10:13:31;;;;;;;4.03;2.60;;;;;;;;;;4932959;29;20058;-58
2023/12/05 10:15:59;;;;;;;4.10;2.50;;;;;;;;;;4931951;29;20059;-60
2023/12/05 10:18:27;;;;;;;4.40;2.78;;;;;;;;;;4929647;29;20416;-59
2023/12/05 10:20:53;;;;;;;5.35;2.08;;;;;;;;;;4933864;29;20032;-60
2023/12/05 10:23:20;;;;;;;4.25;2.58;;;;;;;;;;4932835;29;20044;-61
2023/12/05 10:25:46;;;;;;;4.75;2.38;;;;;;;;;;4931906;29;20052;-61
2023/12/05 10:28:12;;;;;;;3.22;2.40;;;;;;;;;;4932272;29;20024;-62
2023/12/05 10:30:39;;;;;;;5.63;2.75;;;;;;;;;;4929164;29;20052;-63
2023/12/05 10:33:08;;;;;;;4.03;2.72;;;;;;;;;;4933061;29;20051;-61
2023/12/05 10:35:34;;;;;;;2.88;2.15;;;;;;;;;;4929046;29;20120;-60
2023/12/05 10:38:07;;;;;;;4.45;2.40;;;;;;;;;;4930775;29;20047;-61
2023/12/05 10:40:51;;;;;;;4.90;2.95;;;;;;;;;;4926179;29;20514;-62
2023/12/05 10:43:19;;;;;;;3.92;2.17;;;;;;;;;;4931092;29;20055;-61
2023/12/05 10:45:45;;;;;;;3.50;1.80;;;;;;;;;;4929347;29;20402;-62
2023/12/05 10:48:15;;;;;;;3.22;1.85;;;;;;;;;;4932064;29;20034;-62
2023/12/05 10:50:43;;;;;;;3.03;1.90;;;;;;;;;;4930244;29;20042;-62
2023/12/05 10:53:10;;;;;;;2.22;1.60;;;;;;;;;;4927930;29;20043;-61
2023/12/05 10:55:36;;;;;;;3.85;1.90;;;;;;;;;;4931159;29;20047;-63
2023/12/05 10:58:02;;;;;;;4.72;1.92;;;;;;;;;;4932273;29;20032;-62
2023/12/05 11:00:29;;;;;;;2.97;1.90;;;;;;;;;;4928850;29;20070;-63
2023/12/05 11:02:56;;;;;;;4.78;1.90;;;;;;;;;;4929323;29;20050;-61
2023/12/05 11:05:23;;;;;;;3.90;1.95;;;;;;;;;;4931964;29;20043;-63
2023/12/05 11:07:51;;;;;;;5.32;1.52;;;;;;;;;;4931663;29;20047;-62
2023/12/05 11:10:17;;;;;;;4.60;1.50;;;;;;;;;;4923346;29;20051;-62
2023/12/05 11:12:48;;;;;;;2.17;1.30;;;;;;;;;;4931922;29;20415;-61
2023/12/05 11:15:17;;;;;;;2.75;1.27;;;;;;;;;;4933264;29;20039;-63
2023/12/05 11:17:50;;;;;;;2.95;1.40;;;;;;;;;;4929596;29;20031;-62
2023/12/05 11:20:48;;;;;;;1.85;1.20;;;;;;;;;;4921883;29;20060;-60
2023/12/05 11:23:42;;;;;;;2.25;0.98;;;;;;;;;;4928305;29;20043;-60
2023/12/05 11:26:56;;;;;;;1.88;1.08;;;;;;;;;;4926404;29;20043;-61
2023/12/05 11:29:28;;;;;;;1.73;1.10;;;;;;;;;;4898226;29;20510;-60
2023/12/05 11:32:13;;;;;;;3.58;1.45;;;;;;;;;;4928180;29;20752;-59
2023/12/05 11:35:11;;;;;;;3.20;1.60;;;;;;;;;;4926625;29;20407;-60
2023/12/05 11:38:02;;;;;;;2.25;1.45;;;;;;;;;;4923174;29;20043;-62
2023/12/05 11:40:28;;;;;;;3.78;1.73;;;;;;;;;;4931370;29;20048;-59
2023/12/05 11:43:07;;;;;;;2.03;0.80;;;;;;;;;;4929519;29;20048;-64
2023/12/05 11:45:37;;;;;;;2.22;1.55;;;;;;;;;;4930108;29;20071;-61
2023/12/05 11:48:04;;;;;;;2.42;1.38;;;;;;;;;;4929893;29;20035;-63
2023/12/05 11:50:45;;;;;;;1.25;1.00;;;;;;;;;;4928767;29;20078;-62
2023/12/05 11:53:12;;;;;;;3.25;1.00;;;;;;;;;;4930754;29;20047;-62
2023/12/05 11:55:45;;;;;;;1.25;1.08;;;;;;;;;;4931424;29;20510;-60
2023/12/05 11:58:34;;;;;;;1.70;1.20;;;;;;;;;;4931438;29;20047;-61
2023/12/05 12:01:05;;;;;;;2.13;0.90;;;;;;;;;;4930823;29;20058;-59
2023/12/05 12:03:50;;;;;;;1.88;1.10;;;;;;;;;;4928323;29;20071;-62
2023/12/05 12:06:18;;;;;;;1.98;1.20;;;;;;;;;;4930945;29;20079;-60
2023/12/05 12:08:48;;;;;;;1.52;1.13;;;;;;;;;;4930372;29;20054;-58
2023/12/05 12:11:14;;;;;;;1.23;1.13;;;;;;;;;;4931478;29;20444;-59
2023/12/05 12:13:40;;;;;;;1.27;1.10;;;;;;;;;;4928913;29;20054;-60
2023/12/05 12:16:07;;;;;;;2.10;1.02;;;;;;;;;;4931871;29;20043;-60
2023/12/05 12:18:33;;;;;;;2.20;1.05;;;;;;;;;;4931327;29;20035;-59
2023/12/05 12:20:59;;;;;;;4.47;2.10;;;;;;;;;;4930820;29;20047;-60
2023/12/05 12:23:26;;;;;;;1.85;0.90;;;;;;;;;;4930176;29;20063;-61
2023/12/05 12:25:55;;;;;;;1.40;1.20;;;;;;;;;;4927115;29;20055;-61
2023/12/05 12:28:28;;;;;;;;;;;;;;;;;;4930206;29;20039;-58
2023/12/05 12:30:58;;;;;;;1.40;1.17;;;;;;;;;;4931658;29;20294;-59
2023/12/05 12:33:36;;;;;;;;;;;;;;;;;;4927467;29;20640;-59
2023/12/05 12:36:03;;;;;;;1.80;1.27;;;;;;;;;;4923389;29;19922;-59
2023/12/05 12:38:31;;;;;;;2.70;1.50;;;;;;;;;;4928364;29;20070;-59
2023/12/05 12:40:57;;;;;;;3.28;1.65;;;;;;;;;;4926774;29;20051;-59
2023/12/05 12:43:24;;;;;;;4.18;1.70;;;;;;;;;;4928678;29;20052;-59
2023/12/05 12:45:50;;;;;;;2.90;1.75;;;;;;;;;;4931517;29;20059;-61
2023/12/05 12:48:17;;;;;;;3.63;1.90;;;;;;;;;;4928797;29;20388;-60
2023/12/05 12:50:43;;;;;;;6.13;2.20;;;;;;;;;;4931533;29;20027;-59
2023/12/05 12:53:09;;;;;;;3.05;1.90;;;;;;;;;;4931729;29;20104;-61
2023/12/05 12:55:35;;;;;;;3.72;2.20;;;;;;;;;;4930911;29;20063;-60
2023/12/05 12:58:05;;;;;;;4.38;2.75;;;;;;;;;;4924377;29;20515;-60
2023/12/05 13:00:39;;;;;;;4.28;2.25;;;;;;;;;;4931942;29;20070;-60
2023/12/05 13:03:07;;;;;;;2.70;1.88;;;;;;;;;;4930729;29;20048;-60
2023/12/05 13:05:38;;;;;;;5.57;2.50;;;;;;;;;;4935022;29;20050;-59
2023/12/05 13:08:07;;;;;;;4.15;2.10;;;;;;;;;;4932668;29;20039;-59
2023/12/05 13:10:37;;;;;;;3.38;2.40;;;;;;;;;;4934688;29;20051;-59
2023/12/05 13:13:03;;;;;;;;;;;;;;;;;;4932217;29;20036;-59
2023/12/05 13:15:30;;;;;;;3.25;1.98;;;;;;;;;;4930336;29;19918;-59
2023/12/05 13:18:03;;;;;;;4.25;2.20;;;;;;;;;;4933670;29;20522;-58
2023/12/05 13:20:30;;;;;;;3.88;2.38;;;;;;;;;;4934909;29;20036;-61
2023/12/05 13:22:56;;;;;;;3.70;2.28;;;;;;;;;;4934965;29;20035;-61
2023/12/05 13:25:22;;;;;;;2.40;1.90;;;;;;;;;;4931943;29;20047;-62
2023/12/05 13:27:50;;;;;;;2.55;2.05;;;;;;;;;;4933639;29;20081;-60
2023/12/05 13:30:17;;;;;;;2.45;2.05;;;;;;;;;;4933428;29;20062;-59
2023/12/05 13:32:44;;;;;;;3.05;1.80;;;;;;;;;;4930548;29;20070;-60
2023/12/05 13:35:13;;;;;;;3.13;2.20;;;;;;;;;;4928276;29;20058;-59
2023/12/05 13:37:40;;;;;;;3.97;2.20;;;;;;;;;;4933580;29;20499;-60
2023/12/05 13:40:07;;;;;;;2.50;1.88;;;;;;;;;;4934667;29;20062;-61
2023/12/05 13:42:33;;;;;;;3.28;2.13;;;;;;;;;;4934263;29;20040;-60
2023/12/05 13:45:01;;;;;;;2.50;1.67;;;;;;;;;;4927048;29;20048;-59
2023/12/05 13:47:27;;;;;;;2.50;1.77;;;;;;;;;;4927018;29;20416;-60
2023/12/05 13:49:53;;;;;;;3.28;2.00;;;;;;;;;;4929626;29;20051;-60
2023/12/05 13:52:19;;;;;;;4.45;1.90;;;;;;;;;;4932264;29;20051;-60
2023/12/05 13:54:46;;;;;;;2.63;2.00;;;;;;;;;;4934107;29;20043;-60
2023/12/05 13:57:12;;;;;;;2.60;1.95;;;;;;;;;;4931367;29;20044;-59
2023/12/05 13:59:39;;;;;;;2.63;2.10;;;;;;;;;;4934460;29;20039;-62
2023/12/05 14:02:06;;;;;;;2.92;2.00;;;;;;;;;;4933532;29;20051;-60
2023/12/05 14:04:33;;;;;;;4.22;1.90;;;;;;;;;;4932079;29;20052;-60
2023/12/05 14:07:00;;;;;;;4.07;2.10;;;;;;;;;;4929925;29;20337;-60
2023/12/05 14:09:26;;;;;;;3.13;1.70;;;;;;;;;;4932858;29;20514;-60
2023/12/05 14:11:53;;;;;;;5.18;2.67;;;;;;;;;;4926903;29;20047;-60
2023/12/05 14:14:19;;;;;;;5.45;2.38;;;;;;;;;;4934491;29;20044;-59
2023/12/05 14:16:45;;;;;;;3.15;1.73;;;;;;;;;;4931002;29;20045;-60
2023/12/05 14:19:11;;;;;;;2.05;1.67;;;;;;;;;;4934365;29;20047;-60
2023/12/05 14:21:38;;;;;;;2.15;1.60;;;;;;;;;;4933611;29;20031;-61
2023/12/05 14:24:04;;;;;;;2.22;1.50;;;;;;;;;;4934324;29;20035;-59
2023/12/05 14:26:30;;;;;;;4.75;2.13;;;;;;;;;;4928573;29;20055;-59
2023/12/05 14:28:56;;;;;;;3.33;1.50;;;;;;;;;;4933888;29;20028;-61
2023/12/05 14:31:23;;;;;;;2.88;1.85;;;;;;;;;;4932823;29;20431;-60
2023/12/05 14:33:49;;;;;;;3.63;1.80;;;;;;;;;;4932235;29;20068;-60
2023/12/05 14:36:15;;;;;;;3.13;1.63;;;;;;;;;;4930446;29;20039;-61
2023/12/05 14:38:41;;;;;;;2.40;1.40;;;;;;;;;;4930255;29;20439;-59
2023/12/05 14:41:07;;;;;;;3.58;1.65;;;;;;;;;;4930605;29;20114;-62
2023/12/05 14:43:34;;;;;;;3.80;1.75;;;;;;;;;;4931573;29;20047;-62